sensor_id;sensor_type;location;lat;lon;timestamp;P1;durP1;ratioP1;P2;durP2;ratioP2
3791;SDS011;1911;53.768;11.474;2023-02-21T00:02:09;5.37;;;2.57;;
3791;SDS011;1911;53.768;11.474;2023-02-21T00:04:54;3.30;;;2.20;;
3791;SDS011;1911;53.768;11.474;2023-02-21T00:07:38;3.80;;;2.23;;
3791;SDS011;1911;53.768;11.474;2023-02-21T00:10:22;3.13;;;2.63;;
3791;SDS011;1911;53.768;11.474;2023-02-21T00:13:06;4.00;;;2.27;;
3791;SDS011;1911;53.768;11.474;2023-02-21T00:15:52;3.83;;;2.23;;
3791;SDS011;1911;53.768;11.474;2023-02-21T00:18:36;4.60;;;2.17;;
3791;SDS011;1911;53.768;11.474;2023-02-21T00:21:21;3.63;;;2.23;;
3791;SDS011;1911;53.768;11.474;2023-02-21T00:24:06;4.30;;;2.60;;
3791;SDS011;1911;53.768;11.474;2023-02-21T00:26:54;3.70;;;2.53;;
3791;SDS011;1911;53.768;11.474;2023-02-21T00:29:38;6.57;;;2.50;;
3791;SDS011;1911;53.768;11.474;2023-02-21T00:32:22;3.97;;;2.30;;
3791;SDS011;1911;53.768;11.474;2023-02-21T00:35:06;3.50;;;2.03;;
3791;SDS011;1911;53.768;11.474;2023-02-21T00:37:51;3.47;;;2.60;;
3791;SDS011;1911;53.768;11.474;2023-02-21T00:40:35;4.17;;;2.17;;
3791;SDS011;1911;53.768;11.474;2023-02-21T00:43:26;2.53;;;1.90;;
3791;SDS011;1911;53.768;11.474;2023-02-21T00:46:14;4.67;;;3.00;;
3791;SDS011;1911;53.768;11.474;2023-02-21T00:48:58;2.57;;;1.50;;
3791;SDS011;1911;53.768;11.474;2023-02-21T00:51:43;4.60;;;1.73;;
3791;SDS011;1911;53.768;11.474;2023-02-21T00:54:27;2.33;;;1.30;;
3791;SDS011;1911;53.768;11.474;2023-02-21T00:57:12;3.97;;;1.53;;
3791;SDS011;1911;53.768;11.474;2023-02-21T00:59:57;4.53;;;1.40;;
3791;SDS011;1911;53.768;11.474;2023-02-21T01:02:41;3.30;;;1.00;;
3791;SDS011;1911;53.768;11.474;2023-02-21T01:05:26;2.47;;;1.00;;
3791;SDS011;1911;53.768;11.474;2023-02-21T01:08:10;6.53;;;0.93;;
3791;SDS011;1911;53.768;11.474;2023-02-21T01:10:54;8.83;;;1.47;;
3791;SDS011;1911;53.768;11.474;2023-02-21T01:13:38;7.40;;;1.30;;
3791;SDS011;1911;53.768;11.474;2023-02-21T01:16:22;6.43;;;0.93;;
3791;SDS011;1911;53.768;11.474;2023-02-21T01:19:06;2.97;;;0.83;;
3791;SDS011;1911;53.768;11.474;2023-02-21T01:21:50;3.10;;;1.37;;
3791;SDS011;1911;53.768;11.474;2023-02-21T01:24:35;3.30;;;1.10;;
3791;SDS011;1911;53.768;11.474;2023-02-21T01:27:19;4.30;;;0.90;;
3791;SDS011;1911;53.768;11.474;2023-02-21T01:30:03;3.33;;;1.10;;
3791;SDS011;1911;53.768;11.474;2023-02-21T01:32:47;4.27;;;0.97;;
3791;SDS011;1911;53.768;11.474;2023-02-21T01:35:32;3.63;;;0.83;;
3791;SDS011;1911;53.768;11.474;2023-02-21T01:38:16;3.47;;;0.77;;
3791;SDS011;1911;53.768;11.474;2023-02-21T01:41:00;5.63;;;0.97;;
3791;SDS011;1911;53.768;11.474;2023-02-21T01:43:55;3.00;;;0.90;;
3791;SDS011;1911;53.768;11.474;2023-02-21T01:46:40;4.20;;;1.10;;
3791;SDS011;1911;53.768;11.474;2023-02-21T01:49:24;4.57;;;1.37;;
3791;SDS011;1911;53.768;11.474;2023-02-21T01:52:08;5.60;;;1.30;;
3791;SDS011;1911;53.768;11.474;2023-02-21T01:54:52;2.87;;;1.47;;
3791;SDS011;1911;53.768;11.474;2023-02-21T01:57:38;2.80;;;0.93;;
3791;SDS011;1911;53.768;11.474;2023-02-21T02:00:23;4.30;;;1.00;;
3791;SDS011;1911;53.768;11.474;2023-02-21T02:05:43;3.77;;;1.10;;
3791;SDS011;1911;53.768;11.474;2023-02-21T02:08:31;9.23;;;1.50;;
3791;SDS011;1911;53.768;11.474;2023-02-21T02:11:23;8.57;;;1.20;;
3791;SDS011;1911;53.768;11.474;2023-02-21T02:17:28;5.47;;;1.27;;
3791;SDS011;1911;53.768;11.474;2023-02-21T02:30:57;7.43;;;1.30;;
3791;SDS011;1911;53.768;11.474;2023-02-21T02:36:35;8.77;;;1.67;;
3791;SDS011;1911;53.768;11.474;2023-02-21T02:39:18;6.57;;;1.40;;
3791;SDS011;1911;53.768;11.474;2023-02-21T02:44:56;11.53;;;2.63;;
3791;SDS011;1911;53.768;11.474;2023-02-21T02:47:49;10.60;;;1.13;;
3791;SDS011;1911;53.768;11.474;2023-02-21T02:50:33;6.77;;;1.80;;
3791;SDS011;1911;53.768;11.474;2023-02-21T02:53:00;4.70;;;1.10;;
3791;SDS011;1911;53.768;11.474;2023-02-21T02:55:47;5.60;;;1.40;;
3791;SDS011;1911;53.768;11.474;2023-02-21T03:04:53;4.60;;;1.30;;
3791;SDS011;1911;53.768;11.474;2023-02-21T03:10:26;2.67;;;1.27;;
3791;SDS011;1911;53.768;11.474;2023-02-21T03:13:15;6.50;;;1.57;;
3791;SDS011;1911;53.768;11.474;2023-02-21T03:15:55;14.70;;;2.40;;
3791;SDS011;1911;53.768;11.474;2023-02-21T03:18:35;13.17;;;2.03;;
3791;SDS011;1911;53.768;11.474;2023-02-21T03:21:10;3.93;;;1.07;;
3791;SDS011;1911;53.768;11.474;2023-02-21T03:23:40;11.43;;;1.00;;
3791;SDS011;1911;53.768;11.474;2023-02-21T03:26:09;8.70;;;1.43;;
3791;SDS011;1911;53.768;11.474;2023-02-21T03:28:37;6.70;;;1.40;;
3791;SDS011;1911;53.768;11.474;2023-02-21T03:31:03;4.83;;;1.87;;
3791;SDS011;1911;53.768;11.474;2023-02-21T03:33:31;7.50;;;1.70;;
3791;SDS011;1911;53.768;11.474;2023-02-21T03:36:02;4.87;;;1.07;;
3791;SDS011;1911;53.768;11.474;2023-02-21T03:38:29;7.77;;;1.30;;
3791;SDS011;1911;53.768;11.474;2023-02-21T03:40:56;2.50;;;1.50;;
3791;SDS011;1911;53.768;11.474;2023-02-21T03:43:22;5.87;;;1.50;;
3791;SDS011;1911;53.768;11.474;2023-02-21T03:45:47;3.43;;;1.40;;
3791;SDS011;1911;53.768;11.474;2023-02-21T03:48:13;6.53;;;1.33;;
3791;SDS011;1911;53.768;11.474;2023-02-21T03:50:39;4.40;;;0.87;;
3791;SDS011;1911;53.768;11.474;2023-02-21T03:53:04;5.43;;;1.10;;
3791;SDS011;1911;53.768;11.474;2023-02-21T03:55:30;3.57;;;0.97;;
3791;SDS011;1911;53.768;11.474;2023-02-21T03:57:56;4.27;;;1.67;;
3791;SDS011;1911;53.768;11.474;2023-02-21T04:00:21;4.53;;;1.13;;
3791;SDS011;1911;53.768;11.474;2023-02-21T04:02:47;2.60;;;1.00;;
3791;SDS011;1911;53.768;11.474;2023-02-21T04:05:12;4.50;;;1.10;;
3791;SDS011;1911;53.768;11.474;2023-02-21T04:07:38;3.27;;;1.00;;
3791;SDS011;1911;53.768;11.474;2023-02-21T04:10:04;4.27;;;1.10;;
3791;SDS011;1911;53.768;11.474;2023-02-21T04:12:29;6.10;;;0.90;;
3791;SDS011;1911;53.768;11.474;2023-02-21T04:14:55;4.07;;;1.17;;
3791;SDS011;1911;53.768;11.474;2023-02-21T04:17:22;3.93;;;1.27;;
3791;SDS011;1911;53.768;11.474;2023-02-21T04:19:48;6.63;;;1.40;;
3791;SDS011;1911;53.768;11.474;2023-02-21T04:22:14;8.70;;;1.10;;
3791;SDS011;1911;53.768;11.474;2023-02-21T04:24:40;5.83;;;1.60;;
3791;SDS011;1911;53.768;11.474;2023-02-21T04:27:06;10.97;;;1.80;;
3791;SDS011;1911;53.768;11.474;2023-02-21T04:29:32;9.93;;;1.60;;
3791;SDS011;1911;53.768;11.474;2023-02-21T04:31:58;9.37;;;1.60;;
3791;SDS011;1911;53.768;11.474;2023-02-21T04:34:23;7.80;;;1.87;;
3791;SDS011;1911;53.768;11.474;2023-02-21T04:36:49;8.00;;;1.50;;
3791;SDS011;1911;53.768;11.474;2023-02-21T04:39:14;6.20;;;1.27;;
3791;SDS011;1911;53.768;11.474;2023-02-21T04:41:40;5.40;;;1.43;;
3791;SDS011;1911;53.768;11.474;2023-02-21T04:44:06;4.63;;;2.83;;
3791;SDS011;1911;53.768;11.474;2023-02-21T04:46:32;6.10;;;1.60;;
3791;SDS011;1911;53.768;11.474;2023-02-21T04:48:57;5.57;;;1.57;;
3791;SDS011;1911;53.768;11.474;2023-02-21T04:51:24;8.00;;;3.23;;
3791;SDS011;1911;53.768;11.474;2023-02-21T04:53:50;5.60;;;1.40;;
3791;SDS011;1911;53.768;11.474;2023-02-21T04:56:17;5.83;;;1.20;;
3791;SDS011;1911;53.768;11.474;2023-02-21T04:58:45;9.50;;;2.00;;
3791;SDS011;1911;53.768;11.474;2023-02-21T05:01:10;4.87;;;1.83;;
3791;SDS011;1911;53.768;11.474;2023-02-21T05:03:36;3.47;;;1.27;;
3791;SDS011;1911;53.768;11.474;2023-02-21T05:06:02;6.23;;;1.77;;
3791;SDS011;1911;53.768;11.474;2023-02-21T05:08:28;10.13;;;2.43;;
3791;SDS011;1911;53.768;11.474;2023-02-21T05:10:54;13.83;;;3.90;;
3791;SDS011;1911;53.768;11.474;2023-02-21T05:13:19;12.67;;;1.47;;
3791;SDS011;1911;53.768;11.474;2023-02-21T05:15:46;4.83;;;1.30;;
3791;SDS011;1911;53.768;11.474;2023-02-21T05:18:13;9.77;;;2.30;;
3791;SDS011;1911;53.768;11.474;2023-02-21T05:20:46;5.00;;;1.40;;
3791;SDS011;1911;53.768;11.474;2023-02-21T05:23:15;11.77;;;1.83;;
3791;SDS011;1911;53.768;11.474;2023-02-21T05:25:43;11.70;;;1.67;;
3791;SDS011;1911;53.768;11.474;2023-02-21T05:28:09;9.37;;;2.60;;
3791;SDS011;1911;53.768;11.474;2023-02-21T05:30:35;7.03;;;1.80;;
3791;SDS011;1911;53.768;11.474;2023-02-21T05:33:00;8.93;;;1.50;;
3791;SDS011;1911;53.768;11.474;2023-02-21T05:35:26;7.03;;;2.30;;
3791;SDS011;1911;53.768;11.474;2023-02-21T05:37:52;6.60;;;2.83;;
3791;SDS011;1911;53.768;11.474;2023-02-21T05:40:17;5.77;;;1.83;;
3791;SDS011;1911;53.768;11.474;2023-02-21T05:42:43;6.53;;;2.03;;
3791;SDS011;1911;53.768;11.474;2023-02-21T05:45:09;8.53;;;1.93;;
3791;SDS011;1911;53.768;11.474;2023-02-21T05:47:35;13.00;;;2.20;;
3791;SDS011;1911;53.768;11.474;2023-02-21T05:50:02;14.67;;;2.57;;
3791;SDS011;1911;53.768;11.474;2023-02-21T05:52:28;14.30;;;2.63;;
3791;SDS011;1911;53.768;11.474;2023-02-21T05:54:54;8.13;;;2.30;;
3791;SDS011;1911;53.768;11.474;2023-02-21T05:57:19;12.10;;;2.67;;
3791;SDS011;1911;53.768;11.474;2023-02-21T05:59:45;10.37;;;1.90;;
3791;SDS011;1911;53.768;11.474;2023-02-21T06:02:12;16.93;;;3.60;;
3791;SDS011;1911;53.768;11.474;2023-02-21T06:04:38;7.70;;;2.83;;
3791;SDS011;1911;53.768;11.474;2023-02-21T06:07:04;8.40;;;2.43;;
3791;SDS011;1911;53.768;11.474;2023-02-21T06:09:30;14.63;;;2.63;;
3791;SDS011;1911;53.768;11.474;2023-02-21T06:11:55;7.23;;;2.40;;
3791;SDS011;1911;53.768;11.474;2023-02-21T06:14:22;24.73;;;3.33;;
3791;SDS011;1911;53.768;11.474;2023-02-21T06:16:49;14.60;;;2.57;;
3791;SDS011;1911;53.768;11.474;2023-02-21T06:19:15;11.87;;;3.40;;
3791;SDS011;1911;53.768;11.474;2023-02-21T06:21:41;11.77;;;2.80;;
3791;SDS011;1911;53.768;11.474;2023-02-21T06:24:08;11.67;;;3.17;;
3791;SDS011;1911;53.768;11.474;2023-02-21T06:26:35;14.77;;;2.60;;
3791;SDS011;1911;53.768;11.474;2023-02-21T06:29:01;20.60;;;3.30;;
3791;SDS011;1911;53.768;11.474;2023-02-21T06:31:30;11.53;;;2.10;;
3791;SDS011;1911;53.768;11.474;2023-02-21T06:33:56;12.77;;;2.70;;
3791;SDS011;1911;53.768;11.474;2023-02-21T06:36:23;21.43;;;3.53;;
3791;SDS011;1911;53.768;11.474;2023-02-21T06:38:51;21.03;;;3.50;;
3791;SDS011;1911;53.768;11.474;2023-02-21T06:41:20;12.40;;;2.37;;
3791;SDS011;1911;53.768;11.474;2023-02-21T06:43:51;7.97;;;2.53;;
3791;SDS011;1911;53.768;11.474;2023-02-21T06:46:18;13.20;;;2.33;;
3791;SDS011;1911;53.768;11.474;2023-02-21T06:48:46;10.93;;;2.40;;
3791;SDS011;1911;53.768;11.474;2023-02-21T06:51:12;15.03;;;3.57;;
3791;SDS011;1911;53.768;11.474;2023-02-21T06:53:38;13.30;;;3.43;;
3791;SDS011;1911;53.768;11.474;2023-02-21T06:56:08;15.40;;;3.50;;
3791;SDS011;1911;53.768;11.474;2023-02-21T06:58:33;8.80;;;2.40;;
3791;SDS011;1911;53.768;11.474;2023-02-21T07:00:59;14.93;;;2.93;;
3791;SDS011;1911;53.768;11.474;2023-02-21T07:03:25;22.47;;;3.40;;
3791;SDS011;1911;53.768;11.474;2023-02-21T07:05:51;22.90;;;3.47;;
3791;SDS011;1911;53.768;11.474;2023-02-21T07:08:16;16.57;;;2.93;;
3791;SDS011;1911;53.768;11.474;2023-02-21T07:10:42;16.53;;;3.03;;
3791;SDS011;1911;53.768;11.474;2023-02-21T07:13:08;11.40;;;2.87;;
3791;SDS011;1911;53.768;11.474;2023-02-21T07:15:33;20.40;;;4.30;;
3791;SDS011;1911;53.768;11.474;2023-02-21T07:17:59;11.87;;;2.73;;
3791;SDS011;1911;53.768;11.474;2023-02-21T07:20:24;20.13;;;3.47;;
3791;SDS011;1911;53.768;11.474;2023-02-21T07:22:51;23.83;;;3.13;;
3791;SDS011;1911;53.768;11.474;2023-02-21T07:25:20;16.70;;;3.43;;
3791;SDS011;1911;53.768;11.474;2023-02-21T07:27:47;10.30;;;2.40;;
3791;SDS011;1911;53.768;11.474;2023-02-21T07:30:13;17.10;;;3.17;;
3791;SDS011;1911;53.768;11.474;2023-02-21T07:32:39;20.37;;;4.00;;
3791;SDS011;1911;53.768;11.474;2023-02-21T07:35:05;12.03;;;2.77;;
3791;SDS011;1911;53.768;11.474;2023-02-21T07:37:31;16.60;;;3.03;;
3791;SDS011;1911;53.768;11.474;2023-02-21T07:39:56;12.23;;;2.40;;
3791;SDS011;1911;53.768;11.474;2023-02-21T07:42:22;14.70;;;2.70;;
3791;SDS011;1911;53.768;11.474;2023-02-21T07:44:53;10.13;;;2.97;;
3791;SDS011;1911;53.768;11.474;2023-02-21T07:47:22;16.20;;;3.40;;
3791;SDS011;1911;53.768;11.474;2023-02-21T07:49:48;14.57;;;3.20;;
3791;SDS011;1911;53.768;11.474;2023-02-21T07:52:14;22.90;;;2.90;;
3791;SDS011;1911;53.768;11.474;2023-02-21T07:54:39;19.53;;;3.37;;
3791;SDS011;1911;53.768;11.474;2023-02-21T07:57:05;17.03;;;3.37;;
3791;SDS011;1911;53.768;11.474;2023-02-21T07:59:32;16.43;;;2.97;;
3791;SDS011;1911;53.768;11.474;2023-02-21T08:01:58;18.43;;;3.37;;
3791;SDS011;1911;53.768;11.474;2023-02-21T08:04:23;14.70;;;3.30;;
3791;SDS011;1911;53.768;11.474;2023-02-21T08:06:49;12.27;;;2.77;;
3791;SDS011;1911;53.768;11.474;2023-02-21T08:09:15;19.00;;;3.87;;
3791;SDS011;1911;53.768;11.474;2023-02-21T08:11:41;18.50;;;4.40;;
3791;SDS011;1911;53.768;11.474;2023-02-21T08:14:07;21.93;;;4.33;;
3791;SDS011;1911;53.768;11.474;2023-02-21T08:16:32;22.73;;;5.70;;
3791;SDS011;1911;53.768;11.474;2023-02-21T08:18:58;13.97;;;3.80;;
3791;SDS011;1911;53.768;11.474;2023-02-21T08:21:24;13.63;;;3.57;;
3791;SDS011;1911;53.768;11.474;2023-02-21T08:23:53;14.43;;;3.40;;
3791;SDS011;1911;53.768;11.474;2023-02-21T08:26:19;14.63;;;3.10;;
3791;SDS011;1911;53.768;11.474;2023-02-21T08:28:45;33.73;;;3.30;;
3791;SDS011;1911;53.768;11.474;2023-02-21T08:31:11;8.80;;;2.13;;
3791;SDS011;1911;53.768;11.474;2023-02-21T08:33:37;15.50;;;3.17;;
3791;SDS011;1911;53.768;11.474;2023-02-21T08:36:03;14.97;;;3.33;;
3791;SDS011;1911;53.768;11.474;2023-02-21T08:38:28;16.67;;;3.23;;
3791;SDS011;1911;53.768;11.474;2023-02-21T08:40:54;14.07;;;3.23;;
3791;SDS011;1911;53.768;11.474;2023-02-21T08:43:21;15.20;;;3.53;;
3791;SDS011;1911;53.768;11.474;2023-02-21T08:45:47;16.50;;;3.63;;
3791;SDS011;1911;53.768;11.474;2023-02-21T08:48:13;14.47;;;4.27;;
3791;SDS011;1911;53.768;11.474;2023-02-21T08:50:39;14.57;;;2.60;;
3791;SDS011;1911;53.768;11.474;2023-02-21T08:53:04;14.53;;;3.40;;
3791;SDS011;1911;53.768;11.474;2023-02-21T08:55:30;31.90;;;4.93;;
3791;SDS011;1911;53.768;11.474;2023-02-21T08:57:55;15.90;;;3.07;;
3791;SDS011;1911;53.768;11.474;2023-02-21T09:00:22;15.47;;;3.13;;
3791;SDS011;1911;53.768;11.474;2023-02-21T09:02:52;12.37;;;3.87;;
3791;SDS011;1911;53.768;11.474;2023-02-21T09:05:19;19.43;;;4.20;;
3791;SDS011;1911;53.768;11.474;2023-02-21T09:07:51;11.57;;;3.80;;
3791;SDS011;1911;53.768;11.474;2023-02-21T09:10:19;18.60;;;3.43;;
3791;SDS011;1911;53.768;11.474;2023-02-21T09:12:45;22.13;;;3.10;;
3791;SDS011;1911;53.768;11.474;2023-02-21T09:15:15;16.00;;;4.93;;
3791;SDS011;1911;53.768;11.474;2023-02-21T09:17:41;19.50;;;3.60;;
3791;SDS011;1911;53.768;11.474;2023-02-21T09:20:08;12.30;;;3.10;;
3791;SDS011;1911;53.768;11.474;2023-02-21T09:22:35;11.97;;;4.07;;
3791;SDS011;1911;53.768;11.474;2023-02-21T09:25:01;13.83;;;3.47;;
3791;SDS011;1911;53.768;11.474;2023-02-21T09:27:27;16.93;;;2.97;;
3791;SDS011;1911;53.768;11.474;2023-02-21T09:30:06;15.13;;;3.50;;
3791;SDS011;1911;53.768;11.474;2023-02-21T09:32:40;24.00;;;3.83;;
3791;SDS011;1911;53.768;11.474;2023-02-21T09:35:06;23.27;;;4.20;;
3791;SDS011;1911;53.768;11.474;2023-02-21T09:37:36;14.10;;;2.87;;
3791;SDS011;1911;53.768;11.474;2023-02-21T09:40:03;13.63;;;4.13;;
3791;SDS011;1911;53.768;11.474;2023-02-21T09:42:31;19.53;;;4.17;;
3791;SDS011;1911;53.768;11.474;2023-02-21T09:44:57;18.50;;;2.63;;
3791;SDS011;1911;53.768;11.474;2023-02-21T09:47:26;14.70;;;3.23;;
3791;SDS011;1911;53.768;11.474;2023-02-21T09:50:00;23.17;;;3.73;;
3791;SDS011;1911;53.768;11.474;2023-02-21T09:52:32;16.20;;;3.93;;
3791;SDS011;1911;53.768;11.474;2023-02-21T09:55:34;19.57;;;5.30;;
3791;SDS011;1911;53.768;11.474;2023-02-21T09:58:00;15.00;;;3.30;;
3791;SDS011;1911;53.768;11.474;2023-02-21T10:00:28;20.40;;;3.73;;
3791;SDS011;1911;53.768;11.474;2023-02-21T10:03:06;22.80;;;4.00;;
3791;SDS011;1911;53.768;11.474;2023-02-21T10:05:56;16.77;;;2.83;;
3791;SDS011;1911;53.768;11.474;2023-02-21T10:08:48;18.63;;;2.83;;
3791;SDS011;1911;53.768;11.474;2023-02-21T10:11:28;14.33;;;3.47;;
3791;SDS011;1911;53.768;11.474;2023-02-21T10:19:44;15.27;;;3.80;;
3791;SDS011;1911;53.768;11.474;2023-02-21T10:22:21;9.93;;;2.93;;
3791;SDS011;1911;53.768;11.474;2023-02-21T10:24:51;21.23;;;3.13;;
3791;SDS011;1911;53.768;11.474;2023-02-21T10:30:06;12.47;;;2.60;;
3791;SDS011;1911;53.768;11.474;2023-02-21T10:32:35;25.87;;;4.20;;
3791;SDS011;1911;53.768;11.474;2023-02-21T10:35:02;22.30;;;3.67;;
3791;SDS011;1911;53.768;11.474;2023-02-21T10:37:34;16.23;;;3.53;;
3791;SDS011;1911;53.768;11.474;2023-02-21T10:42:48;16.40;;;4.20;;
3791;SDS011;1911;53.768;11.474;2023-02-21T10:45:18;16.67;;;3.23;;
3791;SDS011;1911;53.768;11.474;2023-02-21T10:50:48;19.10;;;4.40;;
3791;SDS011;1911;53.768;11.474;2023-02-21T10:53:37;21.40;;;3.83;;
3791;SDS011;1911;53.768;11.474;2023-02-21T10:58:52;22.80;;;3.87;;
3791;SDS011;1911;53.768;11.474;2023-02-21T11:04:06;17.07;;;3.20;;
3791;SDS011;1911;53.768;11.474;2023-02-21T11:06:47;21.57;;;3.10;;
3791;SDS011;1911;53.768;11.474;2023-02-21T11:12:01;13.33;;;3.13;;
3791;SDS011;1911;53.768;11.474;2023-02-21T11:14:30;10.90;;;2.70;;
3791;SDS011;1911;53.768;11.474;2023-02-21T11:17:04;20.57;;;4.37;;
3791;SDS011;1911;53.768;11.474;2023-02-21T11:19:44;15.03;;;3.63;;
3791;SDS011;1911;53.768;11.474;2023-02-21T11:22:19;14.67;;;3.17;;
3791;SDS011;1911;53.768;11.474;2023-02-21T11:25:00;10.97;;;3.47;;
3791;SDS011;1911;53.768;11.474;2023-02-21T11:28:00;15.57;;;3.60;;
3791;SDS011;1911;53.768;11.474;2023-02-21T11:30:26;12.67;;;2.93;;
3791;SDS011;1911;53.768;11.474;2023-02-21T11:32:54;14.83;;;2.97;;
3791;SDS011;1911;53.768;11.474;2023-02-21T11:36:07;10.70;;;3.30;;
3791;SDS011;1911;53.768;11.474;2023-02-21T11:38:28;15.37;;;2.97;;
3791;SDS011;1911;53.768;11.474;2023-02-21T11:40:59;29.70;;;4.53;;
3791;SDS011;1911;53.768;11.474;2023-02-21T11:43:31;16.50;;;3.50;;
3791;SDS011;1911;53.768;11.474;2023-02-21T11:48:30;17.47;;;3.30;;
3791;SDS011;1911;53.768;11.474;2023-02-21T11:51:03;16.40;;;3.90;;
3791;SDS011;1911;53.768;11.474;2023-02-21T11:53:33;13.97;;;3.20;;
3791;SDS011;1911;53.768;11.474;2023-02-21T11:56:16;16.90;;;3.70;;
3791;SDS011;1911;53.768;11.474;2023-02-21T12:01:47;20.37;;;3.47;;
3791;SDS011;1911;53.768;11.474;2023-02-21T12:05:04;20.93;;;3.17;;
3791;SDS011;1911;53.768;11.474;2023-02-21T12:12:46;17.90;;;3.77;;
3791;SDS011;1911;53.768;11.474;2023-02-21T12:21:10;14.00;;;3.10;;
3791;SDS011;1911;53.768;11.474;2023-02-21T12:24:45;21.43;;;3.80;;
3791;SDS011;1911;53.768;11.474;2023-02-21T12:27:11;15.07;;;3.20;;
3791;SDS011;1911;53.768;11.474;2023-02-21T12:30:10;16.83;;;3.87;;
3791;SDS011;1911;53.768;11.474;2023-02-21T12:37:59;16.43;;;3.47;;
3791;SDS011;1911;53.768;11.474;2023-02-21T12:40:44;11.70;;;2.43;;
3791;SDS011;1911;53.768;11.474;2023-02-21T12:46:35;18.40;;;2.93;;
3791;SDS011;1911;53.768;11.474;2023-02-21T12:51:59;10.27;;;2.80;;
3791;SDS011;1911;53.768;11.474;2023-02-21T12:54:39;12.23;;;3.43;;
3791;SDS011;1911;53.768;11.474;2023-02-21T12:57:12;20.20;;;2.90;;
3791;SDS011;1911;53.768;11.474;2023-02-21T13:02:18;21.07;;;3.90;;
3791;SDS011;1911;53.768;11.474;2023-02-21T13:05:17;12.50;;;4.00;;
3791;SDS011;1911;53.768;11.474;2023-02-21T13:08:06;16.47;;;4.67;;
3791;SDS011;1911;53.768;11.474;2023-02-21T13:13:36;13.33;;;3.30;;
3791;SDS011;1911;53.768;11.474;2023-02-21T13:16:09;19.03;;;3.13;;
3791;SDS011;1911;53.768;11.474;2023-02-21T13:18:48;19.07;;;2.90;;
3791;SDS011;1911;53.768;11.474;2023-02-21T13:24:14;13.70;;;3.23;;
3791;SDS011;1911;53.768;11.474;2023-02-21T13:29:50;18.93;;;2.90;;
3791;SDS011;1911;53.768;11.474;2023-02-21T13:32:17;20.10;;;3.67;;
3791;SDS011;1911;53.768;11.474;2023-02-21T13:34:48;12.40;;;2.70;;
3791;SDS011;1911;53.768;11.474;2023-02-21T13:37:23;21.30;;;3.47;;
3791;SDS011;1911;53.768;11.474;2023-02-21T13:39:59;12.63;;;3.80;;
3791;SDS011;1911;53.768;11.474;2023-02-21T13:42:32;13.87;;;3.03;;
3791;SDS011;1911;53.768;11.474;2023-02-21T13:53:16;13.37;;;2.83;;
3791;SDS011;1911;53.768;11.474;2023-02-21T14:00:53;11.80;;;3.40;;
3791;SDS011;1911;53.768;11.474;2023-02-21T14:08:28;25.10;;;2.90;;
3791;SDS011;1911;53.768;11.474;2023-02-21T14:10:58;12.40;;;4.10;;
3791;SDS011;1911;53.768;11.474;2023-02-21T14:26:55;12.23;;;2.93;;
3791;SDS011;1911;53.768;11.474;2023-02-21T14:39:52;13.97;;;3.17;;
3791;SDS011;1911;53.768;11.474;2023-02-21T15:08:01;13.30;;;3.17;;
3791;SDS011;1911;53.768;11.474;2023-02-21T15:10:41;14.93;;;3.63;;
3791;SDS011;1911;53.768;11.474;2023-02-21T15:16:04;13.40;;;3.83;;
3791;SDS011;1911;53.768;11.474;2023-02-21T15:18:33;15.63;;;5.20;;
3791;SDS011;1911;53.768;11.474;2023-02-21T15:21:05;15.87;;;3.80;;
3791;SDS011;1911;53.768;11.474;2023-02-21T15:23:44;15.40;;;3.13;;
3791;SDS011;1911;53.768;11.474;2023-02-21T15:28:48;14.27;;;2.97;;
3791;SDS011;1911;53.768;11.474;2023-02-21T15:31:31;11.87;;;3.37;;
3791;SDS011;1911;53.768;11.474;2023-02-21T15:34:01;11.30;;;3.10;;
3791;SDS011;1911;53.768;11.474;2023-02-21T15:36:27;9.90;;;3.60;;
3791;SDS011;1911;53.768;11.474;2023-02-21T15:39:05;11.53;;;3.33;;
3791;SDS011;1911;53.768;11.474;2023-02-21T15:41:46;15.07;;;3.53;;
3791;SDS011;1911;53.768;11.474;2023-02-21T15:44:26;9.83;;;3.20;;
3791;SDS011;1911;53.768;11.474;2023-02-21T15:47:17;9.10;;;2.27;;
3791;SDS011;1911;53.768;11.474;2023-02-21T15:49:44;14.53;;;4.03;;
3791;SDS011;1911;53.768;11.474;2023-02-21T15:52:38;18.20;;;3.13;;
3791;SDS011;1911;53.768;11.474;2023-02-21T16:00:31;24.63;;;5.60;;
3791;SDS011;1911;53.768;11.474;2023-02-21T16:06:14;18.30;;;3.40;;
3791;SDS011;1911;53.768;11.474;2023-02-21T16:09:02;20.57;;;2.87;;
3791;SDS011;1911;53.768;11.474;2023-02-21T16:14:21;20.60;;;3.50;;
3791;SDS011;1911;53.768;11.474;2023-02-21T16:17:34;25.37;;;4.17;;
3791;SDS011;1911;53.768;11.474;2023-02-21T16:19:57;15.80;;;5.40;;
3791;SDS011;1911;53.768;11.474;2023-02-21T16:22:27;14.97;;;2.80;;
3791;SDS011;1911;53.768;11.474;2023-02-21T16:27:36;19.67;;;3.60;;
3791;SDS011;1911;53.768;11.474;2023-02-21T16:30:04;9.93;;;2.03;;
3791;SDS011;1911;53.768;11.474;2023-02-21T16:32:31;14.60;;;3.00;;
3791;SDS011;1911;53.768;11.474;2023-02-21T16:34:57;20.83;;;3.73;;
3791;SDS011;1911;53.768;11.474;2023-02-21T16:37:23;13.57;;;3.83;;
3791;SDS011;1911;53.768;11.474;2023-02-21T16:39:48;26.80;;;3.90;;
3791;SDS011;1911;53.768;11.474;2023-02-21T16:42:14;14.30;;;2.80;;
3791;SDS011;1911;53.768;11.474;2023-02-21T16:44:43;10.97;;;3.73;;
3791;SDS011;1911;53.768;11.474;2023-02-21T16:47:13;16.73;;;4.63;;
3791;SDS011;1911;53.768;11.474;2023-02-21T16:49:40;20.00;;;2.50;;
3791;SDS011;1911;53.768;11.474;2023-02-21T16:52:09;10.27;;;3.43;;
3791;SDS011;1911;53.768;11.474;2023-02-21T16:54:40;20.80;;;4.20;;
3791;SDS011;1911;53.768;11.474;2023-02-21T16:57:05;9.90;;;2.23;;
3791;SDS011;1911;53.768;11.474;2023-02-21T16:59:31;13.40;;;3.00;;
3791;SDS011;1911;53.768;11.474;2023-02-21T17:01:57;15.30;;;3.13;;
3791;SDS011;1911;53.768;11.474;2023-02-21T17:04:23;22.93;;;3.20;;
3791;SDS011;1911;53.768;11.474;2023-02-21T17:06:54;22.77;;;3.70;;
3791;SDS011;1911;53.768;11.474;2023-02-21T17:09:22;14.37;;;3.43;;
3791;SDS011;1911;53.768;11.474;2023-02-21T17:11:50;16.20;;;3.10;;
3791;SDS011;1911;53.768;11.474;2023-02-21T17:14:17;12.73;;;2.90;;
3791;SDS011;1911;53.768;11.474;2023-02-21T17:16:43;11.60;;;3.50;;
3791;SDS011;1911;53.768;11.474;2023-02-21T17:19:12;8.23;;;3.37;;
3791;SDS011;1911;53.768;11.474;2023-02-21T17:21:40;11.80;;;3.17;;
3791;SDS011;1911;53.768;11.474;2023-02-21T17:24:07;16.00;;;4.40;;
3791;SDS011;1911;53.768;11.474;2023-02-21T17:26:35;8.83;;;2.83;;
3791;SDS011;1911;53.768;11.474;2023-02-21T17:29:02;17.93;;;4.70;;
3791;SDS011;1911;53.768;11.474;2023-02-21T17:31:28;13.30;;;3.70;;
3791;SDS011;1911;53.768;11.474;2023-02-21T17:33:54;31.23;;;7.30;;
3791;SDS011;1911;53.768;11.474;2023-02-21T17:36:20;20.43;;;5.90;;
3791;SDS011;1911;53.768;11.474;2023-02-21T17:38:47;16.70;;;6.37;;
3791;SDS011;1911;53.768;11.474;2023-02-21T17:41:13;24.03;;;5.73;;
3791;SDS011;1911;53.768;11.474;2023-02-21T17:43:39;24.30;;;6.00;;
3791;SDS011;1911;53.768;11.474;2023-02-21T17:46:08;14.63;;;6.10;;
3791;SDS011;1911;53.768;11.474;2023-02-21T17:48:35;23.33;;;5.70;;
3791;SDS011;1911;53.768;11.474;2023-02-21T17:51:04;15.73;;;4.60;;
3791;SDS011;1911;53.768;11.474;2023-02-21T17:53:30;9.97;;;3.80;;
3791;SDS011;1911;53.768;11.474;2023-02-21T17:55:55;27.43;;;6.57;;
3791;SDS011;1911;53.768;11.474;2023-02-21T17:58:23;31.47;;;10.30;;
3791;SDS011;1911;53.768;11.474;2023-02-21T18:00:54;54.77;;;20.33;;
3791;SDS011;1911;53.768;11.474;2023-02-21T18:03:20;29.03;;;10.47;;
3791;SDS011;1911;53.768;11.474;2023-02-21T18:05:46;25.87;;;11.93;;
3791;SDS011;1911;53.768;11.474;2023-02-21T18:08:12;31.97;;;14.60;;
3791;SDS011;1911;53.768;11.474;2023-02-21T18:10:41;25.10;;;11.87;;
3791;SDS011;1911;53.768;11.474;2023-02-21T18:13:10;25.13;;;9.87;;
3791;SDS011;1911;53.768;11.474;2023-02-21T18:15:43;38.17;;;12.33;;
3791;SDS011;1911;53.768;11.474;2023-02-21T18:18:09;32.40;;;10.83;;
3791;SDS011;1911;53.768;11.474;2023-02-21T18:20:37;58.17;;;26.67;;
3791;SDS011;1911;53.768;11.474;2023-02-21T18:23:03;118.37;;;45.60;;
3791;SDS011;1911;53.768;11.474;2023-02-21T18:25:30;33.03;;;12.50;;